createdAt,value
2019-02-27T00:00:49.857Z,11.50
2019-02-27T00:03:19.700Z,12.70
2019-02-27T00:05:48.407Z,10.87
2019-02-27T00:08:17.207Z,12.53
2019-02-27T00:10:46.157Z,11.53
2019-02-27T00:13:14.947Z,11.83
2019-02-27T00:15:43.735Z,12.90
2019-02-27T00:18:12.384Z,11.70
2019-02-27T00:20:41.132Z,13.10
2019-02-27T00:23:09.784Z,13.93
2019-02-27T00:25:38.515Z,13.17
2019-02-27T00:28:07.385Z,13.90
2019-02-27T00:30:38.154Z,18.60
2019-02-27T00:33:06.610Z,13.10
2019-02-27T00:35:38.665Z,13.97
2019-02-27T00:38:05.897Z,12.83
2019-02-27T00:40:38.536Z,13.43
2019-02-27T00:43:05.058Z,12.90
2019-02-27T00:45:33.864Z,11.10
2019-02-27T00:48:02.622Z,11.40
2019-02-27T00:50:31.359Z,11.60
2019-02-27T00:53:00.163Z,12.88
2019-02-27T00:55:28.857Z,12.73
2019-02-27T00:57:57.632Z,14.20
2019-02-27T01:00:26.443Z,12.73
2019-02-27T01:02:55.175Z,13.63
2019-02-27T01:05:23.912Z,13.50
2019-02-27T01:07:54.230Z,13.10
2019-02-27T01:10:23.279Z,13.03
2019-02-27T01:12:57.793Z,11.80
2019-02-27T01:15:23.974Z,13.70
2019-02-27T01:17:55.035Z,10.93
2019-02-27T01:20:23.218Z,12.73
2019-02-27T01:22:51.864Z,13.70
2019-02-27T01:25:22.886Z,13.45
2019-02-27T01:27:51.091Z,13.20
2019-02-27T01:30:23.885Z,13.77
2019-02-27T01:32:50.349Z,12.57
2019-02-27T01:35:19.105Z,14.80
2019-02-27T01:37:47.895Z,14.40
2019-02-27T01:40:18.059Z,14.00
2019-02-27T01:42:47.231Z,14.70
2019-02-27T01:45:20.570Z,14.93
2019-02-27T01:47:47.810Z,14.77
2019-02-27T01:50:28.428Z,14.45
2019-02-27T01:52:57.188Z,15.10
2019-02-27T01:55:25.865Z,15.70
2019-02-27T01:57:54.485Z,14.90
2019-02-27T02:00:23.979Z,15.90
2019-02-27T02:02:52.911Z,12.70
2019-02-27T02:05:26.155Z,14.40
2019-02-27T02:07:52.188Z,15.32
2019-02-27T02:10:20.900Z,13.80
2019-02-27T02:12:55.543Z,16.40
2019-02-27T02:15:36.370Z,13.70
2019-02-27T02:18:19.879Z,14.77
2019-02-27T02:20:51.573Z,15.57
2019-02-27T02:23:34.995Z,15.20
2019-02-27T02:26:23.064Z,15.70
2019-02-27T02:29:17.923Z,15.90
2019-02-27T02:32:01.293Z,12.40
2019-02-27T02:34:50.997Z,13.90
2019-02-27T02:37:25.409Z,15.03
2019-02-27T02:40:21.232Z,16.10
2019-02-27T02:43:24.622Z,14.93
2019-02-27T02:45:59.267Z,15.83
2019-02-27T02:48:56.688Z,16.07
2019-02-27T02:51:49.014Z,15.80
2019-02-27T02:54:37.945Z,14.45
2019-02-27T02:57:15.978Z,16.00
2019-02-27T03:00:00.914Z,13.60
2019-02-27T03:02:35.811Z,14.97
2019-02-27T03:05:24.262Z,19.23
2019-02-27T03:08:11.266Z,14.20
2019-02-27T03:11:02.463Z,15.20
2019-02-27T03:13:53.517Z,15.70
2019-02-27T03:16:47.536Z,14.87
2019-02-27T03:19:41.731Z,15.10
2019-02-27T03:22:24.136Z,14.93
2019-02-27T03:25:04.405Z,15.00
2019-02-27T03:28:05.030Z,15.93
2019-02-27T03:30:53.079Z,15.50
2019-02-27T03:33:27.531Z,16.27
2019-02-27T03:36:04.710Z,16.70
2019-02-27T03:38:59.114Z,14.80
2019-02-27T03:41:36.462Z,14.87
2019-02-27T03:44:20.600Z,15.70
2019-02-27T03:46:56.416Z,15.50
2019-02-27T03:49:40.983Z,14.67
2019-02-27T03:52:28.923Z,14.93
2019-02-27T03:55:09.733Z,17.40
2019-02-27T03:58:02.371Z,14.00
2019-02-27T04:00:34.176Z,15.00
2019-02-27T04:03:20.855Z,19.00
2019-02-27T04:05:55.203Z,15.20
2019-02-27T04:08:48.771Z,14.80
2019-02-27T04:11:17.561Z,16.02
2019-02-27T04:13:46.378Z,13.20
2019-02-27T04:16:15.638Z,13.55
2019-02-27T04:18:44.423Z,15.43
2019-02-27T04:21:13.309Z,14.63
2019-02-27T04:23:47.946Z,15.60
2019-02-27T04:26:12.552Z,15.90
2019-02-27T04:28:41.244Z,17.23
2019-02-27T04:31:10.032Z,17.03
2019-02-27T04:33:38.796Z,15.93
2019-02-27T04:36:12.316Z,17.87
2019-02-27T04:38:37.941Z,15.60
2019-02-27T04:41:06.749Z,18.30
2019-02-27T04:43:35.501Z,17.07
2019-02-27T04:46:05.235Z,16.12
2019-02-27T04:48:33.892Z,24.10
2019-02-27T04:51:02.588Z,24.23
2019-02-27T04:53:31.821Z,18.97
2019-02-27T04:56:01.718Z,16.40
2019-02-27T04:58:31.370Z,17.10
2019-02-27T05:01:00.652Z,21.65
2019-02-27T05:03:29.292Z,23.83
2019-02-27T05:06:02.435Z,18.27
2019-02-27T05:08:31.570Z,17.50
2019-02-27T05:11:00.116Z,18.73
2019-02-27T05:13:28.810Z,18.87
2019-02-27T05:15:58.222Z,19.85
2019-02-27T05:18:29.314Z,19.57
2019-02-27T05:20:57.454Z,18.57
2019-02-27T05:23:26.086Z,17.27
2019-02-27T05:25:55.035Z,16.20
2019-02-27T05:28:23.730Z,17.63
2019-02-27T05:30:52.466Z,17.50
2019-02-27T05:33:21.317Z,25.00
2019-02-27T05:35:50.038Z,20.43
2019-02-27T05:38:18.716Z,18.07
2019-02-27T05:40:47.381Z,18.27
2019-02-27T05:43:16.272Z,17.95
2019-02-27T05:45:44.918Z,16.83
2019-02-27T05:48:13.691Z,15.97
2019-02-27T05:50:44.350Z,16.93
2019-02-27T05:53:12.919Z,17.55
2019-02-27T05:55:41.603Z,16.93
2019-02-27T05:58:11.731Z,17.27
2019-02-27T06:00:40.521Z,17.67
2019-02-27T06:03:09.439Z,19.07
2019-02-27T06:05:38.175Z,16.53
2019-02-27T06:08:06.871Z,16.37
2019-02-27T06:10:35.569Z,16.73
2019-02-27T06:13:05.307Z,16.00
2019-02-27T06:15:33.978Z,16.00
2019-02-27T06:18:02.799Z,17.13
2019-02-27T06:20:31.596Z,15.10
2019-02-27T06:23:04.166Z,16.60
2019-02-27T06:25:30.926Z,14.70
2019-02-27T06:27:59.699Z,15.73
2019-02-27T06:30:30.623Z,15.77
2019-02-27T06:32:58.850Z,16.80
2019-02-27T06:35:27.489Z,17.00
2019-02-27T06:37:56.214Z,16.80
2019-02-27T06:40:25.010Z,15.40
2019-02-27T06:42:54.435Z,16.17
2019-02-27T06:45:23.600Z,16.87
2019-02-27T06:47:52.260Z,16.30
2019-02-27T06:50:25.163Z,16.90
2019-02-27T06:52:51.531Z,18.17
2019-02-27T06:55:20.470Z,16.35
2019-02-27T06:57:49.282Z,18.60
2019-02-27T07:00:23.640Z,17.32
2019-02-27T07:02:55.194Z,15.30
2019-02-27T07:05:22.775Z,15.57
2019-02-27T07:07:51.598Z,16.47
2019-02-27T07:10:20.699Z,17.57
2019-02-27T07:12:54.421Z,16.53
2019-02-27T07:15:21.739Z,15.87
2019-02-27T07:17:50.504Z,16.40
2019-02-27T07:20:23.790Z,15.80
2019-02-27T07:22:49.621Z,14.07
2019-02-27T07:25:19.552Z,14.43
2019-02-27T07:27:48.159Z,15.60
2019-02-27T07:30:23.637Z,13.47
2019-02-27T07:32:52.150Z,15.50
2019-02-27T07:35:25.598Z,13.03
2019-02-27T07:37:51.396Z,13.43
2019-02-27T07:40:21.555Z,13.53
2019-02-27T07:42:50.334Z,14.43
2019-02-27T07:45:23.805Z,14.20
2019-02-27T07:47:52.657Z,14.47
2019-02-27T07:50:24.130Z,15.20
2019-02-27T07:52:52.858Z,13.57
2019-02-27T07:55:23.295Z,14.85
2019-02-27T07:57:51.997Z,15.97
2019-02-27T08:00:22.812Z,18.57
2019-02-27T08:02:51.554Z,17.13
2019-02-27T08:05:20.357Z,17.13
2019-02-27T08:07:49.935Z,18.70
2019-02-27T08:10:21.830Z,18.27
2019-02-27T08:12:50.616Z,17.57
2019-02-27T08:15:21.049Z,18.95
2019-02-27T08:17:49.855Z,19.43
2019-02-27T08:20:21.031Z,17.57
2019-02-27T08:22:50.201Z,19.40
2019-02-27T08:25:19.863Z,19.63
2019-02-27T08:27:48.677Z,20.40
2019-02-27T08:30:26.099Z,20.43
2019-02-27T08:32:54.953Z,21.17
2019-02-27T08:35:23.760Z,18.45
2019-02-27T08:38:01.905Z,20.10
2019-02-27T08:40:25.099Z,19.25
2019-02-27T08:42:53.443Z,19.83
2019-02-27T08:45:26.820Z,19.10
2019-02-27T08:47:52.627Z,18.73
2019-02-27T08:50:25.300Z,19.17
2019-02-27T08:52:53.921Z,18.37
2019-02-27T08:55:23.076Z,18.33
2019-02-27T08:57:56.052Z,18.47
2019-02-27T09:00:25.302Z,18.53
2019-02-27T09:02:55.634Z,19.10
2019-02-27T09:05:24.670Z,18.37
2019-02-27T09:07:53.431Z,17.27
2019-02-27T09:10:26.819Z,19.70
2019-02-27T09:13:04.392Z,18.20
2019-02-27T09:15:25.283Z,17.50
2019-02-27T09:17:53.976Z,18.10
2019-02-27T09:20:22.785Z,17.13
2019-02-27T09:22:51.720Z,16.83
2019-02-27T09:25:23.729Z,17.50
2019-02-27T09:27:50.922Z,17.20
2019-02-27T09:30:22.717Z,16.00
2019-02-27T09:32:51.402Z,16.63
2019-02-27T09:35:20.113Z,15.07
2019-02-27T09:37:51.191Z,15.90
2019-02-27T09:40:29.517Z,15.72
2019-02-27T09:42:58.014Z,16.90
2019-02-27T09:45:35.362Z,16.40
2019-02-27T09:48:05.484Z,16.12
2019-02-27T09:50:37.354Z,15.73
2019-02-27T09:53:06.095Z,16.20
2019-02-27T09:55:34.882Z,15.53
2019-02-27T09:58:03.690Z,15.30
2019-02-27T10:00:46.389Z,15.03
2019-02-27T10:03:19.844Z,14.68
2019-02-27T10:05:46.353Z,15.00
2019-02-27T10:08:15.187Z,15.00
2019-02-27T10:10:45.847Z,14.90
2019-02-27T10:13:14.446Z,13.20
2019-02-27T10:15:43.145Z,13.37
2019-02-27T10:18:11.932Z,13.65
2019-02-27T10:20:40.774Z,13.47
2019-02-27T10:23:09.648Z,14.30
2019-02-27T10:25:43.232Z,13.40
2019-02-27T10:28:10.645Z,14.80
2019-02-27T10:30:39.436Z,13.70
2019-02-27T10:33:11.207Z,13.25
2019-02-27T10:35:38.709Z,15.13
2019-02-27T10:38:07.472Z,15.60
2019-02-27T10:40:36.208Z,13.43
2019-02-27T10:43:05.113Z,14.28
2019-02-27T10:45:35.186Z,14.80
2019-02-27T10:48:04.567Z,13.63
2019-02-27T10:50:35.561Z,14.45
2019-02-27T10:53:05.377Z,14.60
2019-02-27T10:55:34.186Z,15.00
2019-02-27T10:58:02.952Z,14.03
2019-02-27T11:00:33.338Z,15.55
2019-02-27T11:03:02.559Z,15.75
2019-02-27T11:05:39.503Z,14.30
2019-02-27T11:08:08.288Z,15.07
2019-02-27T11:10:37.043Z,13.50
2019-02-27T11:13:06.988Z,13.23
2019-02-27T11:15:41.137Z,14.10
2019-02-27T11:18:06.975Z,15.00
2019-02-27T11:20:35.793Z,13.60
2019-02-27T11:23:07.036Z,12.70
2019-02-27T11:25:35.605Z,13.30
2019-02-27T11:28:05.320Z,12.80
2019-02-27T11:30:39.507Z,14.50
2019-02-27T11:33:08.290Z,14.55
2019-02-27T11:35:37.023Z,13.63
2019-02-27T11:38:06.071Z,13.00
2019-02-27T11:40:34.899Z,12.57
2019-02-27T11:43:06.558Z,14.43
2019-02-27T11:45:34.107Z,14.55
2019-02-27T11:48:02.734Z,13.40
2019-02-27T11:50:31.503Z,13.03
2019-02-27T11:53:02.813Z,10.53
2019-02-27T11:55:30.657Z,12.37
2019-02-27T11:58:04.601Z,12.13
2019-02-27T12:00:31.354Z,12.27
2019-02-27T12:03:00.155Z,11.40
2019-02-27T12:05:34.049Z,10.60
2019-02-27T12:08:01.040Z,10.70
2019-02-27T12:10:31.829Z,10.93
2019-02-27T12:13:01.317Z,9.90
2019-02-27T12:15:31.543Z,9.20
2019-02-27T12:18:01.491Z,9.13
2019-02-27T12:20:30.886Z,10.67
2019-02-27T12:22:59.543Z,9.47
2019-02-27T12:25:30.102Z,10.43
2019-02-27T12:27:58.682Z,8.50
2019-02-27T12:30:31.715Z,9.17
2019-02-27T12:33:00.415Z,8.03
2019-02-27T12:35:33.956Z,7.80
2019-02-27T12:38:07.128Z,9.27
2019-02-27T12:40:33.539Z,9.17
2019-02-27T12:43:02.179Z,9.33
2019-02-27T12:45:31.723Z,9.20
2019-02-27T12:48:00.690Z,8.90
2019-02-27T12:50:31.513Z,10.30
2019-02-27T12:53:00.580Z,11.60
2019-02-27T12:55:29.511Z,10.90
2019-02-27T12:57:58.266Z,8.53
2019-02-27T13:00:30.269Z,9.30
2019-02-27T13:02:59.408Z,9.20
2019-02-27T13:05:29.180Z,8.03
2019-02-27T13:07:57.836Z,10.63
2019-02-27T13:10:32.843Z,9.33
2019-02-27T13:12:58.738Z,10.17
2019-02-27T13:15:31.999Z,9.77
2019-02-27T13:18:00.747Z,12.90
2019-02-27T13:20:36.913Z,9.90
2019-02-27T13:23:05.682Z,10.43
2019-02-27T13:25:34.353Z,9.70
2019-02-27T13:28:03.061Z,9.87
2019-02-27T13:30:31.874Z,10.03
2019-02-27T13:33:02.024Z,10.40
2019-02-27T13:35:31.232Z,10.30
2019-02-27T13:37:59.919Z,9.30
2019-02-27T13:40:35.223Z,9.40
2019-02-27T13:43:01.273Z,9.23
2019-02-27T13:45:32.319Z,9.37
2019-02-27T13:48:04.990Z,9.17
2019-02-27T13:50:31.518Z,9.10
2019-02-27T13:53:00.252Z,10.03
2019-02-27T13:55:28.984Z,10.13
2019-02-27T13:57:59.181Z,10.23
2019-02-27T14:00:33.610Z,9.35
2019-02-27T14:03:02.342Z,9.80
2019-02-27T14:05:35.204Z,10.20
2019-02-27T14:08:04.558Z,9.90
2019-02-27T14:10:34.634Z,9.30
2019-02-27T14:13:03.360Z,9.63
2019-02-27T14:15:33.623Z,9.60
2019-02-27T14:18:02.855Z,9.83
2019-02-27T14:20:31.642Z,10.63
2019-02-27T14:23:00.279Z,9.37
2019-02-27T14:25:34.127Z,9.37
2019-02-27T14:28:02.871Z,9.40
2019-02-27T14:30:40.307Z,9.80
2019-02-27T14:33:10.947Z,10.27
2019-02-27T14:35:39.442Z,10.40
2019-02-27T14:38:08.167Z,8.60
2019-02-27T14:40:40.062Z,8.23
2019-02-27T14:43:07.518Z,8.80
2019-02-27T14:45:39.491Z,7.13
2019-02-27T14:48:06.683Z,8.53
2019-02-27T14:50:35.518Z,8.67
2019-02-27T14:53:04.365Z,7.90
2019-02-27T14:55:36.251Z,7.73
2019-02-27T14:58:03.741Z,7.20
2019-02-27T15:00:39.586Z,6.87
2019-02-27T15:03:06.091Z,7.53
2019-02-27T15:05:36.813Z,6.20
2019-02-27T15:08:05.825Z,7.90
2019-02-27T15:10:34.565Z,6.93
2019-02-27T15:13:03.534Z,8.07
2019-02-27T15:15:33.461Z,7.27
2019-02-27T15:18:02.297Z,6.83
2019-02-27T15:20:31.725Z,7.05
2019-02-27T15:23:00.545Z,7.93
2019-02-27T15:25:29.284Z,6.37
2019-02-27T15:27:59.937Z,6.23
2019-02-27T15:30:34.035Z,7.30
2019-02-27T15:33:04.895Z,6.70
2019-02-27T15:35:33.216Z,7.17
2019-02-27T15:38:01.952Z,6.90
2019-02-27T15:40:31.859Z,6.10
2019-02-27T15:43:00.643Z,7.70
2019-02-27T15:45:29.905Z,7.00
2019-02-27T15:47:58.584Z,5.93
2019-02-27T15:50:46.430Z,7.53
2019-02-27T15:53:15.909Z,6.90
2019-02-27T15:55:45.673Z,6.57
2019-02-27T15:58:14.377Z,6.70
2019-02-27T16:00:43.158Z,7.35
2019-02-27T16:03:12.160Z,7.55
2019-02-27T16:05:42.316Z,7.47
2019-02-27T16:08:36.276Z,7.37
2019-02-27T16:11:05.433Z,6.73
2019-02-27T16:13:34.702Z,7.77
2019-02-27T16:16:04.968Z,6.97
2019-02-27T16:18:33.901Z,7.43
2019-02-27T16:21:05.283Z,7.10
2019-02-27T16:23:37.190Z,6.90
2019-02-27T16:26:05.306Z,7.45
2019-02-27T16:28:34.034Z,6.70
2019-02-27T16:31:05.799Z,7.13
2019-02-27T16:33:33.251Z,10.20
2019-02-27T16:36:01.947Z,7.60
2019-02-27T16:38:31.652Z,8.33
2019-02-27T16:41:01.206Z,7.03
2019-02-27T16:43:29.936Z,7.77
2019-02-27T16:45:59.353Z,8.10
2019-02-27T16:48:31.066Z,8.80
2019-02-27T16:51:00.597Z,8.70
2019-02-27T16:53:29.966Z,8.53
2019-02-27T16:55:58.730Z,7.40
2019-02-27T16:58:32.798Z,8.23
2019-02-27T17:00:57.972Z,8.03
2019-02-27T17:03:26.643Z,8.40
2019-02-27T17:05:55.341Z,8.00
2019-02-27T17:08:24.059Z,9.33
2019-02-27T17:10:52.867Z,9.10
2019-02-27T17:13:21.568Z,8.95
2019-02-27T17:15:50.305Z,8.60
2019-02-27T17:18:19.176Z,9.40
2019-02-27T17:20:47.893Z,8.98
2019-02-27T17:23:16.673Z,9.20
2019-02-27T17:25:45.382Z,9.00
2019-02-27T17:28:14.104Z,9.40
2019-02-27T17:30:42.829Z,9.27
2019-02-27T17:33:11.787Z,9.53
2019-02-27T17:35:40.573Z,10.83
2019-02-27T17:38:10.886Z,10.03
2019-02-27T17:40:40.320Z,10.10
2019-02-27T17:43:09.404Z,10.27
2019-02-27T17:45:38.218Z,9.93
2019-02-27T17:48:09.273Z,10.77
2019-02-27T17:50:39.276Z,9.58
2019-02-27T17:53:08.469Z,10.68
2019-02-27T17:55:41.594Z,9.40
2019-02-27T17:58:09.212Z,10.00
2019-02-27T18:00:39.646Z,11.50
2019-02-27T18:03:10.120Z,10.33
2019-02-27T18:05:40.921Z,10.60
2019-02-27T18:08:09.871Z,11.30
2019-02-27T18:10:39.445Z,10.95
2019-02-27T18:13:09.851Z,11.50
2019-02-27T18:15:38.594Z,11.07
2019-02-27T18:18:10.411Z,12.00
2019-02-27T18:20:37.730Z,11.28
2019-02-27T18:23:06.495Z,11.53
2019-02-27T18:25:35.405Z,11.43
2019-02-27T18:28:04.947Z,11.80
2019-02-27T18:30:33.626Z,12.47
2019-02-27T18:33:02.423Z,12.80
2019-02-27T18:35:31.196Z,12.35
2019-02-27T18:37:59.851Z,13.03
2019-02-27T18:40:29.055Z,13.60
2019-02-27T18:42:57.727Z,12.85
2019-02-27T18:45:28.388Z,13.50
2019-02-27T18:47:58.719Z,12.80
2019-02-27T18:50:28.177Z,14.80
2019-02-27T18:52:57.088Z,17.20
2019-02-27T18:55:29.621Z,15.03
2019-02-27T18:57:57.283Z,15.10
2019-02-27T19:00:33.345Z,15.10
2019-02-27T19:03:06.747Z,17.00
2019-02-27T19:05:38.163Z,18.60
2019-02-27T19:08:06.765Z,19.90
2019-02-27T19:10:41.308Z,20.50
2019-02-27T19:13:06.031Z,19.17
2019-02-27T19:15:46.320Z,17.20
2019-02-27T19:18:15.455Z,16.17
2019-02-27T19:20:49.786Z,14.37
2019-02-27T19:23:18.688Z,15.30
2019-02-27T19:25:48.597Z,14.23
2019-02-27T19:28:18.937Z,14.77
2019-02-27T19:30:47.792Z,13.87
2019-02-27T19:33:16.838Z,15.83
2019-02-27T19:35:45.774Z,10.37
2019-02-27T19:38:14.411Z,14.33
2019-02-27T19:40:43.185Z,12.60
2019-02-27T19:43:12.101Z,12.58
2019-02-27T19:45:42.304Z,13.95
2019-02-27T19:48:11.398Z,13.68
2019-02-27T19:50:44.856Z,12.93
2019-02-27T19:53:10.543Z,12.40
2019-02-27T19:55:39.328Z,12.80
2019-02-27T19:58:08.054Z,12.40
2019-02-27T20:00:38.050Z,13.47
2019-02-27T20:03:07.497Z,12.60
2019-02-27T20:05:36.493Z,13.17
2019-02-27T20:08:09.911Z,13.20
2019-02-27T20:10:35.739Z,12.67
2019-02-27T20:13:06.907Z,11.85
2019-02-27T20:15:35.798Z,13.10
2019-02-27T20:18:08.275Z,13.38
2019-02-27T20:20:40.919Z,13.50
2019-02-27T20:23:07.258Z,13.90
2019-02-27T20:25:36.083Z,14.83
2019-02-27T20:28:04.946Z,14.90
2019-02-27T20:30:33.875Z,13.60
2019-02-27T20:33:04.980Z,14.70
2019-02-27T20:35:34.576Z,14.30
2019-02-27T20:38:03.418Z,15.50
2019-02-27T20:40:34.365Z,15.77
2019-02-27T20:43:02.660Z,14.30
2019-02-27T20:45:31.767Z,14.60
2019-02-27T20:48:01.973Z,15.90
2019-02-27T20:50:37.979Z,17.92
2019-02-27T20:53:09.578Z,17.00
2019-02-27T20:55:38.367Z,16.97
2019-02-27T20:58:07.869Z,16.30
2019-02-27T21:00:37.309Z,16.97
2019-02-27T21:03:06.588Z,18.67
2019-02-27T21:05:41.032Z,17.03
2019-02-27T21:08:12.020Z,17.07
2019-02-27T21:10:42.689Z,15.50
2019-02-27T21:13:16.041Z,16.33
2019-02-27T21:15:43.616Z,17.23
2019-02-27T21:18:14.062Z,16.93
2019-02-27T21:20:45.220Z,17.43
2019-02-27T21:23:15.291Z,15.63
2019-02-27T21:25:48.643Z,16.80
2019-02-27T21:28:20.947Z,17.20
2019-02-27T21:30:45.734Z,19.30
2019-02-27T21:33:16.632Z,19.17
2019-02-27T21:35:45.343Z,18.57
2019-02-27T21:38:16.632Z,16.30
2019-02-27T21:40:45.078Z,17.73
2019-02-27T21:43:13.886Z,18.77
2019-02-27T21:45:42.819Z,17.53
2019-02-27T21:48:11.844Z,16.67
2019-02-27T21:50:40.739Z,17.90
2019-02-27T21:53:09.585Z,16.37
2019-02-27T21:55:38.224Z,17.73
2019-02-27T21:58:06.985Z,18.37
2019-02-27T22:00:35.738Z,18.60
2019-02-27T22:03:05.478Z,18.55
2019-02-27T22:05:42.535Z,18.27
2019-02-27T22:08:06.108Z,19.23
2019-02-27T22:10:35.647Z,17.90
2019-02-27T22:13:09.544Z,17.80
2019-02-27T22:15:37.547Z,19.30
2019-02-27T22:18:08.361Z,18.73
2019-02-27T22:20:36.678Z,19.40
2019-02-27T22:23:05.465Z,19.33
2019-02-27T22:25:34.230Z,19.23
2019-02-27T22:28:02.851Z,20.37
2019-02-27T22:30:31.983Z,20.20
2019-02-27T22:33:02.101Z,20.07
2019-02-27T22:35:30.860Z,19.30
2019-02-27T22:37:59.494Z,20.97
2019-02-27T22:40:28.272Z,21.33
2019-02-27T22:42:57.027Z,20.53
2019-02-27T22:45:25.813Z,19.90
2019-02-27T22:47:54.757Z,20.47
2019-02-27T22:50:23.462Z,22.00
2019-02-27T22:52:54.574Z,17.50
2019-02-27T22:55:22.666Z,21.17
2019-02-27T22:57:51.280Z,21.50
2019-02-27T23:00:56.676Z,22.82
2019-02-27T23:03:31.928Z,19.97
2019-02-27T23:06:00.715Z,23.20
2019-02-27T23:08:29.388Z,20.87
2019-02-27T23:10:58.193Z,20.53
2019-02-27T23:13:26.989Z,23.67
2019-02-27T23:15:59.002Z,23.03
2019-02-27T23:18:26.323Z,21.10
2019-02-27T23:20:56.157Z,23.00
2019-02-27T23:23:26.110Z,21.77
2019-02-27T23:25:55.984Z,23.90
2019-02-27T23:28:24.718Z,22.60
2019-02-27T23:30:53.400Z,22.27
2019-02-27T23:33:24.575Z,24.67
2019-02-27T23:35:52.798Z,23.87
2019-02-27T23:38:22.294Z,22.65
2019-02-27T23:40:50.970Z,23.00
2019-02-27T23:43:19.856Z,23.40
2019-02-27T23:45:49.357Z,25.07
2019-02-27T23:48:18.856Z,24.23
2019-02-27T23:50:47.600Z,23.93
2019-02-27T23:53:16.347Z,24.90
2019-02-27T23:55:45.511Z,24.27
2019-02-27T23:58:14.346Z,25.07
